createdAt,value
2023-01-01T00:00:49.026Z,1.00
2023-01-01T00:03:16.343Z,1.00
2023-01-01T00:05:43.492Z,1.00
2023-01-01T00:08:10.714Z,1.00
2023-01-01T00:10:38.448Z,1.00
2023-01-01T00:13:05.587Z,1.00
2023-01-01T00:15:33.600Z,1.00
2023-01-01T00:18:01.340Z,1.00
2023-01-01T00:20:34.737Z,1.00
2023-01-01T00:23:02.610Z,1.00
2023-01-01T00:25:30.453Z,1.00
2023-01-01T00:27:57.589Z,1.00
2023-01-01T00:30:25.359Z,1.00
2023-01-01T00:32:54.864Z,1.00
2023-01-01T00:35:24.947Z,1.00
2023-01-01T00:37:52.373Z,1.00
2023-01-01T00:40:19.516Z,1.00
2023-01-01T00:42:46.727Z,1.00
2023-01-01T00:45:20.589Z,1.00
2023-01-01T00:47:49.535Z,1.00
2023-01-01T00:50:16.849Z,1.00
2023-01-01T00:52:44.613Z,1.00
2023-01-01T00:55:12.317Z,1.00
2023-01-01T00:57:39.467Z,1.00
2023-01-01T01:00:08.530Z,1.00
2023-01-01T01:02:35.907Z,1.00
2023-01-01T01:05:05.012Z,1.00
2023-01-01T01:07:39.039Z,1.00
2023-01-01T01:10:07.196Z,1.00
2023-01-01T01:12:35.961Z,1.00
2023-01-01T01:15:04.649Z,1.00
2023-01-01T01:17:32.123Z,1.00
2023-01-01T01:19:59.466Z,1.00
2023-01-01T01:22:28.994Z,1.00
2023-01-01T01:24:56.877Z,1.00
2023-01-01T01:27:24.475Z,1.00
2023-01-01T01:29:51.701Z,1.00
2023-01-01T01:32:19.254Z,1.00
2023-01-01T01:34:47.115Z,1.00
2023-01-01T01:37:14.343Z,1.00
2023-01-01T01:39:41.519Z,1.00
2023-01-01T01:42:16.590Z,1.00
2023-01-01T01:44:49.418Z,1.00
2023-01-01T01:47:31.506Z,1.00
2023-01-01T01:50:29.932Z,1.00
2023-01-01T01:53:24.273Z,1.00
2023-01-01T01:55:56.248Z,1.00
2023-01-01T01:58:25.250Z,1.00
2023-01-01T02:00:53.590Z,1.00
2023-01-01T02:03:37.602Z,1.00
2023-01-01T02:06:05.320Z,1.00
2023-01-01T02:08:35.500Z,1.00
2023-01-01T02:11:03.226Z,1.00
2023-01-01T02:13:31.060Z,1.00
2023-01-01T02:16:14.036Z,1.00
2023-01-01T02:18:53.179Z,1.00
2023-01-01T02:21:30.483Z,1.00
2023-01-01T02:24:15.845Z,1.00
2023-01-01T02:26:43.330Z,1.00
2023-01-01T02:29:33.224Z,1.00
2023-01-01T02:32:14.526Z,1.00
2023-01-01T02:34:49.734Z,1.00
2023-01-01T02:37:19.180Z,1.00
2023-01-01T02:39:55.637Z,1.00
2023-01-01T02:42:27.886Z,1.00
2023-01-01T02:44:58.512Z,1.00
2023-01-01T02:47:25.659Z,1.00
2023-01-01T02:50:12.347Z,1.00
2023-01-01T02:53:00.241Z,1.00
2023-01-01T02:56:02.417Z,1.00
2023-01-01T02:59:04.500Z,1.00
2023-01-01T03:01:37.593Z,1.00
2023-01-01T03:04:27.433Z,1.00
2023-01-01T03:06:57.309Z,1.00
2023-01-01T03:09:38.955Z,1.00
2023-01-01T03:12:43.576Z,1.00
2023-01-01T03:15:33.529Z,1.00
2023-01-01T03:18:13.656Z,1.00
2023-01-01T03:20:45.877Z,1.00
2023-01-01T03:23:18.631Z,1.00
2023-01-01T03:25:57.964Z,1.00
2023-01-01T03:28:35.107Z,1.00
2023-01-01T03:31:03.240Z,1.00
2023-01-01T03:33:36.204Z,1.00
2023-01-01T03:36:06.333Z,1.00
2023-01-01T03:38:49.391Z,1.00
2023-01-01T03:41:58.867Z,1.00
2023-01-01T03:44:42.124Z,1.00
2023-01-01T03:47:09.480Z,1.00
2023-01-01T03:49:37.078Z,1.00
2023-01-01T03:52:41.067Z,1.00
2023-01-01T03:55:25.693Z,1.00
2023-01-01T03:58:01.450Z,1.00
2023-01-01T04:00:33.808Z,1.00
2023-01-01T04:03:04.941Z,1.00
2023-01-01T04:05:36.335Z,1.00
2023-01-01T04:08:04.739Z,1.00
2023-01-01T04:10:34.737Z,1.00
2023-01-01T04:13:06.038Z,1.00
2023-01-01T04:15:34.027Z,1.00
2023-01-01T04:18:01.170Z,1.00
2023-01-01T04:20:28.600Z,1.00
2023-01-01T04:23:02.831Z,1.00
2023-01-01T04:25:30.723Z,1.00
2023-01-01T04:28:03.766Z,1.00
2023-01-01T04:30:31.482Z,1.00
2023-01-01T04:32:58.692Z,1.00
2023-01-01T04:35:25.906Z,1.00
2023-01-01T04:37:53.094Z,1.00
2023-01-01T04:40:20.238Z,1.00
2023-01-01T04:42:47.431Z,1.00
2023-01-01T04:45:15.584Z,1.00
2023-01-01T04:47:43.092Z,1.00
2023-01-01T04:50:11.336Z,1.00
2023-01-01T04:52:38.521Z,1.00
2023-01-01T04:55:06.155Z,1.00
2023-01-01T04:57:33.319Z,1.00
2023-01-01T05:00:00.431Z,1.00
2023-01-01T05:02:27.879Z,1.00
2023-01-01T05:04:55.103Z,1.00
2023-01-01T05:07:22.291Z,1.00
2023-01-01T05:09:49.507Z,1.00
2023-01-01T05:12:16.729Z,1.00
2023-01-01T05:14:43.926Z,1.00
2023-01-01T05:17:11.067Z,1.00
2023-01-01T05:19:38.293Z,1.00
2023-01-01T05:22:10.403Z,1.00
2023-01-01T05:24:38.234Z,1.00
2023-01-01T05:27:05.463Z,1.00
2023-01-01T05:29:32.592Z,1.00
2023-01-01T05:31:59.816Z,1.00
2023-01-01T05:36:54.886Z,1.00
2023-01-01T05:39:23.057Z,1.00
2023-01-01T05:41:50.195Z,1.00
2023-01-01T05:44:19.616Z,1.00
2023-01-01T05:46:46.946Z,1.00
2023-01-01T05:49:14.193Z,1.00
2023-01-01T05:51:44.381Z,1.00
2023-01-01T05:54:20.927Z,1.00
2023-01-01T05:56:48.012Z,1.00
2023-01-01T05:59:15.218Z,1.00
2023-01-01T06:01:45.756Z,1.00
2023-01-01T06:04:13.768Z,1.00
2023-01-01T06:06:41.063Z,1.00
2023-01-01T06:09:08.192Z,1.00
2023-01-01T06:11:35.393Z,1.00
2023-01-01T06:14:03.070Z,1.00
2023-01-01T06:16:31.465Z,1.00
2023-01-01T06:18:59.506Z,1.00
2023-01-01T06:21:28.482Z,1.00
2023-01-01T06:23:57.547Z,1.00
2023-01-01T06:26:27.945Z,1.00
2023-01-01T06:28:56.492Z,1.00
2023-01-01T06:31:24.659Z,1.00
2023-01-01T06:33:52.014Z,1.00
2023-01-01T06:36:21.496Z,1.00
2023-01-01T06:38:51.975Z,1.00
2023-01-01T06:41:24.954Z,1.00
2023-01-01T06:43:52.756Z,1.00
2023-01-01T06:46:24.613Z,1.00
2023-01-01T06:48:55.546Z,1.00
2023-01-01T06:51:25.520Z,1.00
2023-01-01T06:53:53.449Z,1.00
2023-01-01T06:56:21.299Z,1.00
2023-01-01T06:58:48.565Z,1.00
2023-01-01T07:01:19.680Z,1.00
2023-01-01T07:04:01.511Z,1.00
2023-01-01T07:06:30.242Z,1.00
2023-01-01T07:08:57.598Z,1.00
2023-01-01T07:11:25.584Z,1.00
2023-01-01T07:13:52.911Z,1.00
2023-01-01T07:16:21.307Z,1.00
2023-01-01T07:18:50.639Z,99.90
2023-01-01T07:21:44.700Z,99.90
2023-01-01T07:24:16.318Z,99.90
2023-01-01T07:26:43.821Z,99.90
2023-01-01T07:29:11.321Z,99.90
2023-01-01T07:31:40.663Z,99.90
2023-01-01T07:34:11.372Z,99.90
2023-01-01T07:36:38.585Z,99.90
2023-01-01T07:39:05.740Z,99.90
2023-01-01T07:41:33.010Z,99.90
2023-01-01T07:44:00.433Z,99.90
2023-01-01T07:46:27.800Z,99.90
2023-01-01T07:48:55.039Z,99.90
2023-01-01T07:51:22.321Z,99.90
2023-01-01T07:53:49.494Z,99.90
2023-01-01T07:56:16.772Z,99.90
2023-01-01T07:58:44.254Z,99.90
2023-01-01T08:01:13.679Z,99.90
2023-01-01T08:03:41.384Z,99.90
2023-01-01T08:06:13.066Z,99.90
2023-01-01T08:08:41.322Z,99.90
2023-01-01T08:11:08.770Z,99.90
2023-01-01T08:13:35.952Z,99.90
2023-01-01T08:16:03.460Z,99.90
2023-01-01T08:18:30.665Z,99.90
2023-01-01T08:20:57.907Z,99.90
2023-01-01T08:23:25.230Z,99.90
2023-01-01T08:25:52.445Z,99.90
2023-01-01T08:28:19.574Z,99.90
2023-01-01T08:30:46.707Z,99.90
2023-01-01T08:33:13.811Z,99.90
2023-01-01T08:35:44.153Z,99.90
2023-01-01T08:38:13.981Z,99.90
2023-01-01T08:40:41.378Z,99.90
2023-01-01T08:43:08.519Z,99.90
2023-01-01T08:45:35.806Z,99.90
2023-01-01T08:48:02.948Z,99.90
2023-01-01T08:50:30.199Z,99.90
2023-01-01T08:52:59.275Z,99.90
2023-01-01T08:55:26.508Z,99.90
2023-01-01T08:57:53.720Z,99.90
2023-01-01T09:00:21.569Z,99.90
2023-01-01T09:02:48.878Z,99.90
2023-01-01T09:05:16.172Z,99.90
2023-01-01T09:07:43.392Z,99.90
2023-01-01T09:10:10.539Z,99.90
2023-01-01T09:12:37.827Z,99.90
2023-01-01T09:15:05.457Z,99.90
2023-01-01T09:17:32.621Z,99.90
2023-01-01T09:19:59.695Z,99.90
2023-01-01T09:22:26.839Z,99.90
2023-01-01T09:24:54.115Z,99.90
2023-01-01T09:27:21.300Z,99.90
2023-01-01T09:29:48.499Z,99.90
2023-01-01T09:32:15.753Z,99.90
2023-01-01T09:34:47.316Z,99.90
2023-01-01T09:37:17.701Z,99.90
2023-01-01T09:39:44.863Z,99.90
2023-01-01T09:42:23.323Z,99.90
2023-01-01T09:45:21.799Z,99.90
2023-01-01T09:48:07.751Z,99.90
2023-01-01T09:50:42.416Z,99.90
2023-01-01T09:53:32.988Z,1.00
2023-01-01T09:56:02.660Z,1.00
2023-01-01T09:58:36.246Z,1.00
2023-01-01T10:01:40.955Z,99.90
2023-01-01T10:04:32.409Z,99.90
2023-01-01T10:07:11.592Z,99.90
2023-01-01T10:09:44.621Z,57.40
2023-01-01T10:12:39.634Z,1.00
2023-01-01T10:15:20.169Z,1.00
2023-01-01T10:17:51.164Z,1.00
2023-01-01T10:20:26.831Z,1.00
2023-01-01T10:23:02.903Z,1.00
2023-01-01T10:25:32.995Z,1.00
2023-01-01T10:28:07.790Z,1.00
2023-01-01T10:30:34.963Z,1.00
2023-01-01T10:33:02.363Z,1.00
2023-01-01T10:35:36.675Z,1.00
2023-01-01T10:38:06.068Z,1.00
2023-01-01T10:40:34.531Z,1.00
2023-01-01T10:43:04.055Z,1.00
2023-01-01T10:45:34.547Z,1.00
2023-01-01T10:48:13.684Z,1.00
2023-01-01T10:51:04.869Z,1.00
2023-01-01T10:53:51.305Z,1.00
2023-01-01T10:56:20.541Z,99.90
2023-01-01T10:58:56.680Z,99.90
2023-01-01T11:01:34.352Z,99.90
2023-01-01T11:04:21.340Z,99.90
2023-01-01T11:06:48.717Z,99.90
2023-01-01T11:09:27.115Z,99.90
2023-01-01T11:12:09.454Z,99.90
2023-01-01T11:14:43.527Z,99.90
2023-01-01T11:17:11.103Z,99.90
2023-01-01T11:19:45.650Z,99.90
2023-01-01T11:22:36.006Z,99.90
2023-01-01T11:25:05.232Z,99.90
2023-01-01T11:27:32.356Z,99.90
2023-01-01T11:30:23.120Z,99.90
2023-01-01T11:32:55.801Z,99.90
2023-01-01T11:35:26.022Z,99.90
2023-01-01T11:37:55.204Z,99.90
2023-01-01T11:40:36.042Z,99.90
2023-01-01T11:43:07.253Z,99.90
2023-01-01T11:45:40.796Z,99.90
2023-01-01T11:48:27.382Z,99.90
2023-01-01T11:50:57.465Z,99.90
2023-01-01T11:53:27.350Z,99.90
2023-01-01T11:56:09.456Z,99.90
2023-01-01T11:58:48.801Z,99.90
2023-01-01T12:01:30.632Z,99.90
2023-01-01T12:04:16.902Z,99.90
2023-01-01T12:07:16.313Z,99.90
2023-01-01T12:10:22.627Z,99.90
2023-01-01T12:13:03.202Z,99.90
2023-01-01T12:15:44.554Z,99.90
2023-01-01T12:18:24.065Z,99.90
2023-01-01T12:20:56.698Z,99.90
2023-01-01T12:23:23.968Z,99.90
2023-01-01T12:26:00.208Z,99.90
2023-01-01T12:28:33.427Z,99.90
2023-01-01T12:31:06.547Z,99.90
2023-01-01T12:33:36.497Z,99.90
2023-01-01T12:36:24.212Z,99.90
2023-01-01T12:39:42.335Z,99.90
2023-01-01T12:42:38.155Z,99.90
2023-01-01T12:45:31.410Z,99.90
2023-01-01T12:48:17.077Z,99.90
2023-01-01T12:51:04.995Z,99.90
2023-01-01T12:53:55.397Z,99.90
2023-01-01T12:57:15.845Z,99.90
2023-01-01T12:59:48.310Z,99.90
2023-01-01T13:02:25.282Z,99.90
2023-01-01T13:04:57.214Z,99.90
2023-01-01T13:07:34.823Z,99.90
2023-01-01T13:10:13.225Z,99.90
2023-01-01T13:12:40.908Z,99.90
2023-01-01T13:15:38.833Z,99.90
2023-01-01T13:18:07.987Z,99.90
2023-01-01T13:20:41.191Z,99.90
2023-01-01T13:23:34.839Z,99.90
2023-01-01T13:26:26.019Z,99.90
2023-01-01T13:28:59.073Z,99.90
2023-01-01T13:31:41.545Z,99.90
2023-01-01T13:34:30.402Z,99.90
2023-01-01T13:37:17.473Z,99.90
2023-01-01T13:39:58.353Z,99.90
2023-01-01T13:43:04.751Z,99.90
2023-01-01T13:46:11.697Z,99.90
2023-01-01T13:49:24.042Z,99.90
2023-01-01T13:52:43.235Z,99.90
2023-01-01T13:55:35.495Z,99.90
2023-01-01T13:58:18.828Z,99.90
2023-01-01T14:00:58.130Z,99.90
2023-01-01T14:03:27.872Z,99.90
2023-01-01T14:06:00.176Z,99.90
2023-01-01T14:08:33.498Z,99.90
2023-01-01T14:11:02.464Z,99.90
2023-01-01T14:13:32.677Z,99.90
2023-01-01T14:16:08.278Z,99.90
2023-01-01T14:18:45.376Z,99.90
2023-01-01T14:21:21.944Z,99.90
2023-01-01T14:24:02.083Z,99.90
2023-01-01T14:26:31.251Z,99.90
2023-01-01T14:29:00.896Z,99.90
2023-01-01T14:31:35.647Z,99.90
2023-01-01T14:34:23.724Z,99.90
2023-01-01T14:36:56.804Z,99.90
2023-01-01T14:39:29.600Z,99.90
2023-01-01T14:42:02.787Z,99.90
2023-01-01T14:44:38.890Z,99.90
2023-01-01T14:47:16.025Z,99.90
2023-01-01T14:49:43.322Z,99.90
2023-01-01T14:52:21.998Z,99.90
2023-01-01T14:54:49.663Z,99.90
2023-01-01T14:57:25.988Z,99.90
2023-01-01T14:59:57.145Z,99.90
2023-01-01T15:02:30.866Z,99.90
2023-01-01T15:04:59.266Z,99.90
2023-01-01T15:07:31.746Z,99.90
2023-01-01T15:10:01.928Z,99.90
2023-01-01T15:12:30.506Z,99.90
2023-01-01T15:14:58.624Z,99.90
2023-01-01T15:17:27.403Z,99.90
2023-01-01T15:20:06.102Z,99.90
2023-01-01T15:22:35.478Z,1.00
2023-01-01T15:25:03.910Z,1.00
2023-01-01T15:27:37.166Z,1.00
2023-01-01T15:30:13.292Z,1.00
2023-01-01T15:32:41.419Z,1.00
2023-01-01T15:35:32.048Z,1.00
2023-01-01T15:38:24.285Z,1.00
2023-01-01T15:40:53.813Z,1.00
2023-01-01T15:43:25.836Z,1.00
2023-01-01T15:45:56.795Z,1.00
2023-01-01T15:48:35.481Z,1.00
2023-01-01T15:51:11.181Z,1.00
2023-01-01T15:53:49.485Z,1.00
2023-01-01T15:56:17.802Z,1.00
2023-01-01T15:59:03.749Z,1.00
2023-01-01T16:01:35.308Z,1.00
2023-01-01T16:04:14.192Z,1.00
2023-01-01T16:06:49.470Z,1.00
2023-01-01T16:09:18.180Z,1.00
2023-01-01T16:11:46.128Z,1.00
2023-01-01T16:14:13.357Z,33.30
2023-01-01T16:16:43.621Z,70.80
2023-01-01T16:19:17.545Z,88.50
2023-01-01T16:21:44.881Z,91.90
2023-01-01T16:24:14.638Z,93.10
2023-01-01T16:26:43.071Z,88.20
2023-01-01T16:29:10.521Z,80.60
2023-01-01T16:31:40.042Z,79.50
2023-01-01T16:34:07.556Z,84.60
2023-01-01T16:36:34.845Z,92.00
2023-01-01T16:39:02.116Z,96.60
2023-01-01T16:41:30.649Z,99.90
2023-01-01T16:43:58.172Z,99.90
2023-01-01T16:46:28.143Z,99.90
2023-01-01T16:48:55.454Z,99.90
2023-01-01T16:51:28.858Z,99.90
2023-01-01T16:53:57.755Z,99.90
2023-01-01T16:56:25.027Z,99.90
2023-01-01T16:59:02.146Z,99.90
2023-01-01T17:01:30.671Z,99.90
2023-01-01T17:03:58.163Z,99.90
2023-01-01T17:06:25.351Z,99.90
2023-01-01T17:08:52.696Z,99.90
2023-01-01T17:11:20.919Z,99.90
2023-01-01T17:13:48.605Z,99.90
2023-01-01T17:16:23.548Z,99.90
2023-01-01T17:19:14.538Z,99.90
2023-01-01T17:21:42.619Z,99.90
2023-01-01T17:24:10.128Z,99.90
2023-01-01T17:26:37.382Z,99.90
2023-01-01T17:29:07.047Z,99.90
2023-01-01T17:31:34.500Z,99.90
2023-01-01T17:34:02.578Z,99.90
2023-01-01T17:36:30.224Z,99.90
2023-01-01T17:38:57.860Z,99.90
2023-01-01T17:41:25.652Z,99.90
2023-01-01T17:43:54.697Z,99.90
2023-01-01T17:46:25.118Z,99.90
2023-01-01T17:48:53.391Z,99.90
2023-01-01T17:51:21.742Z,99.90
2023-01-01T17:53:49.901Z,99.90
2023-01-01T17:56:19.526Z,99.90
2023-01-01T17:58:49.010Z,99.90
2023-01-01T18:01:22.473Z,99.90
2023-01-01T18:03:52.136Z,99.90
2023-01-01T18:06:19.592Z,99.90
2023-01-01T18:08:47.785Z,99.90
2023-01-01T18:11:15.205Z,99.90
2023-01-01T18:13:42.525Z,99.90
2023-01-01T18:16:12.378Z,99.90
2023-01-01T18:18:40.912Z,99.90
2023-01-01T18:21:10.534Z,99.90
2023-01-01T18:23:39.970Z,99.90
2023-01-01T18:26:10.412Z,99.90
2023-01-01T18:28:38.527Z,1.00
2023-01-01T18:31:10.886Z,1.00
2023-01-01T18:33:38.624Z,1.00
2023-01-01T18:36:18.576Z,1.00
2023-01-01T18:39:22.364Z,1.00
2023-01-01T18:41:49.449Z,1.00
2023-01-01T18:44:23.119Z,1.00
2023-01-01T18:47:13.869Z,1.00
2023-01-01T18:49:48.943Z,1.00
2023-01-01T18:52:26.577Z,1.00
2023-01-01T18:55:19.596Z,1.00
2023-01-01T18:57:56.737Z,1.00
2023-01-01T19:00:31.589Z,1.00
2023-01-01T19:03:04.170Z,1.00
2023-01-01T19:05:34.710Z,1.00
2023-01-01T19:08:08.029Z,1.00
2023-01-01T19:10:37.643Z,1.00
2023-01-01T19:13:38.077Z,1.00
2023-01-01T19:16:30.914Z,1.00
2023-01-01T19:19:15.018Z,1.00
2023-01-01T19:21:47.916Z,1.00
2023-01-01T19:24:27.946Z,1.00
2023-01-01T19:27:18.150Z,1.00
2023-01-01T19:29:48.187Z,1.00
2023-01-01T19:32:16.308Z,1.00
2023-01-01T19:34:43.915Z,1.00
2023-01-01T19:37:12.009Z,1.00
2023-01-01T19:39:39.787Z,1.00
2023-01-01T19:42:07.632Z,1.00
2023-01-01T19:44:38.644Z,1.00
2023-01-01T19:47:09.387Z,1.00
2023-01-01T19:49:37.201Z,1.00
2023-01-01T19:52:05.212Z,1.00
2023-01-01T19:54:32.452Z,1.00
2023-01-01T19:57:00.246Z,1.00
2023-01-01T19:59:32.953Z,1.00
2023-01-01T20:02:43.325Z,1.00
2023-01-01T20:04:51.163Z,1.00
2023-01-01T20:07:21.276Z,1.00
2023-01-01T20:09:49.316Z,1.00
2023-01-01T20:12:17.309Z,1.00
2023-01-01T20:14:45.378Z,1.00
2023-01-01T20:17:13.437Z,1.00
2023-01-01T20:19:45.007Z,1.00
2023-01-01T20:22:14.526Z,1.00
2023-01-01T20:24:43.043Z,1.00
2023-01-01T20:27:29.986Z,1.00
2023-01-01T20:29:58.445Z,1.00
2023-01-01T20:32:29.697Z,1.00
2023-01-01T20:34:58.134Z,1.00
2023-01-01T20:37:37.889Z,1.00
2023-01-01T20:40:12.472Z,1.00
2023-01-01T20:42:42.414Z,1.00
2023-01-01T20:45:10.905Z,1.00
2023-01-01T20:47:39.622Z,1.00
2023-01-01T20:50:12.011Z,1.00
2023-01-01T20:52:39.898Z,1.00
2023-01-01T20:55:08.675Z,1.00
2023-01-01T20:57:36.342Z,1.00
2023-01-01T21:00:04.844Z,1.00
2023-01-01T21:02:32.942Z,1.00
2023-01-01T21:05:00.602Z,1.00
2023-01-01T21:07:28.420Z,1.00
2023-01-01T21:09:56.384Z,1.00
2023-01-01T21:12:24.420Z,1.00
2023-01-01T21:14:55.959Z,1.00
2023-01-01T21:17:25.707Z,1.00
2023-01-01T21:19:57.415Z,1.00
2023-01-01T21:22:25.766Z,1.00
2023-01-01T21:24:55.493Z,1.00
2023-01-01T21:27:32.859Z,1.00
2023-01-01T21:30:00.849Z,1.00
2023-01-01T21:32:39.694Z,1.00
2023-01-01T21:35:29.723Z,1.00
2023-01-01T21:38:00.991Z,1.00
2023-01-01T21:40:35.850Z,1.00
2023-01-01T21:43:05.735Z,1.00
2023-01-01T21:45:40.937Z,1.00
2023-01-01T21:48:17.447Z,1.00
2023-01-01T21:50:49.755Z,1.00
2023-01-01T21:53:19.601Z,1.00
2023-01-01T21:55:53.528Z,1.00
2023-01-01T21:58:45.476Z,1.00
2023-01-01T22:01:27.277Z,1.00
2023-01-01T22:04:00.571Z,1.00
2023-01-01T22:06:37.654Z,1.00
2023-01-01T22:09:35.271Z,1.00
2023-01-01T22:12:17.454Z,1.00
2023-01-01T22:14:50.773Z,1.00
2023-01-01T22:17:37.068Z,1.00
2023-01-01T22:20:19.785Z,1.00
2023-01-01T22:22:46.943Z,1.00
2023-01-01T22:25:32.177Z,1.00
2023-01-01T22:28:14.534Z,1.00
2023-01-01T22:30:43.832Z,1.00
2023-01-01T22:33:15.796Z,1.00
2023-01-01T22:35:43.100Z,1.00
2023-01-01T22:38:15.786Z,1.00
2023-01-01T22:40:43.206Z,1.00
2023-01-01T22:43:13.449Z,1.00
2023-01-01T22:45:46.885Z,1.00
2023-01-01T22:48:37.007Z,1.00
2023-01-01T22:51:13.423Z,1.00
2023-01-01T22:53:40.651Z,1.00
2023-01-01T22:56:08.057Z,1.00
2023-01-01T22:58:35.217Z,1.00
2023-01-01T23:01:02.426Z,1.00
2023-01-01T23:03:29.656Z,1.00
2023-01-01T23:05:57.509Z,1.00
2023-01-01T23:08:26.002Z,1.00
2023-01-01T23:10:54.564Z,1.00
2023-01-01T23:13:40.938Z,1.00
2023-01-01T23:16:08.278Z,1.00
2023-01-01T23:18:37.183Z,1.00
2023-01-01T23:21:12.014Z,1.00
2023-01-01T23:23:40.700Z,1.00
2023-01-01T23:26:09.069Z,1.00
2023-01-01T23:28:37.301Z,1.00
2023-01-01T23:31:07.486Z,1.00
2023-01-01T23:33:35.661Z,1.00
2023-01-01T23:36:03.509Z,1.00
2023-01-01T23:38:31.842Z,1.00
2023-01-01T23:40:59.110Z,1.00
2023-01-01T23:43:26.264Z,1.00
2023-01-01T23:45:54.463Z,1.00
2023-01-01T23:48:22.310Z,1.00
2023-01-01T23:50:50.076Z,1.00
2023-01-01T23:53:17.197Z,1.00
2023-01-01T23:55:44.602Z,1.00
2023-01-01T23:58:11.752Z,1.00
